Time;durP1;ratioP1;P1;durP2;ratioP2;P2;SDS_P1;SDS_P2;PMS_P1;PMS_P2;Temp;Humidity;BMP_temperature;BMP_pressure;BME280_temperature;BME280_humidity;BME280_pressure;Samples;Min_cycle;Max_cycle;Signal;HPM_P1;HPM_P2
2023/10/03 00:00:33;;;;;;;4.60;3.10;;;;;;;22.86;52.79;100333.88;4615804;27;20031;-63
2023/10/03 00:02:44;;;;;;;5.28;3.15;;;;;;;22.83;52.68;100323.97;4617526;27;20039;-63
2023/10/03 00:04:55;;;;;;;5.55;3.20;;;;;;;22.85;52.46;100326.47;4616566;27;20035;-63
2023/10/03 00:07:06;;;;;;;4.15;2.70;;;;;;;22.85;52.53;100321.50;4615531;27;20057;-63
2023/10/03 00:09:16;;;;;;;4.00;2.75;;;;;;;22.84;52.36;100311.22;4615441;27;20167;-63
2023/10/03 00:11:27;;;;;;;4.47;2.63;;;;;;;22.83;52.22;100306.72;4590155;27;20027;-63
2023/10/03 00:13:37;;;;;;;5.10;3.03;;;;;;;22.85;52.25;100312.06;4613876;27;20356;-63
2023/10/03 00:15:48;;;;;;;5.13;2.80;;;;;;;22.85;52.32;100295.63;4616064;27;20062;-64
2023/10/03 00:17:58;;;;;;;5.53;3.40;;;;;;;22.83;52.68;100289.44;4616076;27;20039;-63
2023/10/03 00:20:12;;;;;;;5.28;3.20;;;;;;;22.84;52.49;100291.09;4613601;27;20061;-63
2023/10/03 00:22:22;;;;;;;5.47;3.10;;;;;;;22.84;52.63;100290.25;4616125;27;20630;-63
2023/10/03 00:24:33;;;;;;;5.63;3.17;;;;;;;22.84;52.38;100275.88;4616201;27;20105;-63
2023/10/03 00:26:44;;;;;;;4.72;3.10;;;;;;;22.83;51.82;100272.19;4617355;27;20024;-63
2023/10/03 00:28:56;;;;;;;5.55;3.38;;;;;;;22.81;52.58;100256.50;4603331;27;21104;-63
2023/10/03 00:31:10;;;;;;;5.70;3.20;;;;;;;22.80;52.14;100264.28;4616724;27;20118;-63
2023/10/03 00:33:25;;;;;;;5.00;3.20;;;;;;;22.82;52.12;100249.50;4615722;27;20035;-64
2023/10/03 00:35:35;;;;;;;4.50;2.92;;;;;;;22.80;52.14;100249.91;4615527;27;20023;-64
2023/10/03 00:37:48;;;;;;;6.05;3.38;;;;;;;22.85;52.12;100251.63;4615637;27;20388;-63
2023/10/03 00:39:59;;;;;;;5.57;3.30;;;;;;;22.82;51.91;100253.22;4604479;27;20035;-63
2023/10/03 00:42:11;;;;;;;5.25;3.42;;;;;;;22.83;51.87;100239.69;4616242;27;20057;-63
2023/10/03 00:44:22;;;;;;;5.55;3.42;;;;;;;22.83;51.96;100243.41;4603257;27;20023;-63
2023/10/03 00:46:33;;;;;;;5.82;3.17;;;;;;;22.82;51.76;100235.13;4603148;27;20042;-63
2023/10/03 00:48:43;;;;;;;4.80;3.28;;;;;;;22.80;51.94;100235.53;4618512;27;20034;-63
2023/10/03 00:50:55;;;;;;;5.57;3.58;;;;;;;22.81;51.82;100222.81;4593174;27;20036;-64
2023/10/03 00:53:10;;;;;;;5.18;3.10;;;;;;;22.82;52.37;100229.38;4619556;27;20042;-63
2023/10/03 00:55:27;;;;;;;5.90;3.40;;;;;;;22.82;51.82;100218.69;4619079;27;20122;-63
2023/10/03 00:57:37;;;;;;;6.03;3.50;;;;;;;22.82;51.77;100220.75;4616235;27;20046;-63
2023/10/03 00:59:48;;;;;;;5.85;3.50;;;;;;;22.80;51.74;100209.63;4618031;27;20592;-63
2023/10/03 01:02:05;;;;;;;5.45;3.30;;;;;;;22.77;51.75;100198.09;4618851;27;20037;-63
2023/10/03 01:04:19;;;;;;;5.85;3.33;;;;;;;22.82;51.90;100212.09;4619060;27;20042;-63
2023/10/03 01:06:30;;;;;;;5.22;3.30;;;;;;;22.81;51.78;100204.72;4619091;27;20550;-63
2023/10/03 01:08:42;;;;;;;7.32;3.67;;;;;;;22.79;51.99;100196.47;4617891;27;20031;-63
2023/10/03 01:10:54;;;;;;;6.13;3.67;;;;;;;22.81;51.82;100199.78;4606184;27;20842;-63
2023/10/03 01:13:11;;;;;;;5.43;3.42;;;;;;;22.79;51.45;100198.50;4618723;27;20032;-63
2023/10/03 01:15:22;;;;;;;;;;;;;;;22.81;51.91;100199.78;4617379;27;20125;-64
2023/10/03 01:17:33;;;;;;;5.57;3.63;;;;;;;22.75;51.55;100178.34;4615188;27;20398;-62
2023/10/03 01:19:44;;;;;;;6.10;3.65;;;;;;;22.75;51.51;100183.25;4618867;27;20023;-62
2023/10/03 01:21:56;;;;;;;6.35;3.65;;;;;;;22.76;51.60;100176.28;4617350;27;20035;-62
2023/10/03 01:24:25;;;;;;;5.80;3.40;;;;;;;22.78;51.92;100180.44;4623973;27;20547;-62
2023/10/03 01:26:36;;;;;;;5.90;3.50;;;;;;;22.79;51.96;100178.38;4618303;27;20039;-62
2023/10/03 01:28:48;;;;;;;5.38;3.38;;;;;;;22.74;51.64;100170.09;4618816;27;20035;-62
2023/10/03 01:30:59;;;;;;;5.85;3.78;;;;;;;22.79;51.64;100172.59;4634498;27;21353;-62
2023/10/03 01:33:11;;;;;;;5.25;3.28;;;;;;;22.75;51.74;100166.84;4617884;27;20512;-62
2023/10/03 01:35:22;;;;;;;5.90;3.67;;;;;;;22.78;51.72;100160.28;4616687;27;20039;-62
2023/10/03 01:37:33;;;;;;;5.85;3.50;;;;;;;22.61;51.99;100129.22;4615515;27;20027;-63
2023/10/03 01:39:43;;;;;;;6.05;3.85;;;;;;;22.77;51.55;100154.94;4618339;27;20457;-63
2023/10/03 01:41:54;;;;;;;5.38;3.20;;;;;;;22.76;51.86;100150.38;4618154;27;20042;-62
2023/10/03 01:44:05;;;;;;;5.75;3.67;;;;;;;22.75;51.83;100143.81;4618072;27;20050;-63
2023/10/03 01:46:18;;;;;;;6.32;3.78;;;;;;;22.77;51.81;100140.53;4615662;27;20051;-62
2023/10/03 01:48:28;;;;;;;6.32;3.53;;;;;;;22.77;51.49;100137.66;4615941;27;20088;-63
2023/10/03 01:50:39;;;;;;;6.90;3.50;;;;;;;22.79;51.78;100129.44;4600100;27;20182;-63
2023/10/03 01:52:49;;;;;;;6.53;3.80;;;;;;;22.73;51.46;100125.28;4617520;27;20039;-63
2023/10/03 01:55:00;;;;;;;6.22;3.50;;;;;;;22.77;51.53;100129.84;4618661;27;20014;-63
2023/10/03 01:57:11;;;;;;;5.53;3.35;;;;;;;22.73;51.52;100128.16;4616671;27;20850;-63
2023/10/03 01:59:21;;;;;;;5.03;3.28;;;;;;;22.77;51.80;100135.59;4617713;27;20062;-63
2023/10/03 02:01:35;;;;;;;5.60;3.70;;;;;;;22.77;52.10;100129.03;4618449;27;20455;-63
2023/10/03 02:03:45;;;;;;;5.78;3.55;;;;;;;22.76;51.98;100122.44;4616562;27;20604;-63
2023/10/03 02:05:56;;;;;;;5.35;3.60;;;;;;;22.75;51.71;100111.34;4600222;27;20046;-63
2023/10/03 02:08:10;;;;;;;5.55;3.50;;;;;;;22.74;51.60;100106.81;4619037;27;20027;-63
2023/10/03 02:10:22;;;;;;;5.40;3.70;;;;;;;22.76;51.97;100105.19;4619081;27;20133;-63
2023/10/03 02:12:33;;;;;;;6.22;3.63;;;;;;;22.71;51.59;100090.31;4618906;27;20641;-63
2023/10/03 02:14:44;;;;;;;5.68;3.55;;;;;;;22.69;51.77;100090.69;4617074;27;20053;-62
2023/10/03 02:16:55;;;;;;;5.68;3.30;;;;;;;22.69;51.42;100079.19;4618574;27;20073;-63
2023/10/03 02:19:06;;;;;;;6.35;3.67;;;;;;;22.75;51.30;100079.69;4616981;27;20039;-63
2023/10/03 02:21:17;;;;;;;6.10;3.72;;;;;;;22.75;51.37;100068.16;4618289;27;20896;-63
2023/10/03 02:23:28;;;;;;;5.88;3.50;;;;;;;22.73;51.20;100068.56;4618664;27;20046;-62
2023/10/03 02:25:39;;;;;;;5.40;3.25;;;;;;;22.75;51.53;100068.16;4617856;27;21337;-63
2023/10/03 02:27:51;;;;;;;5.80;3.58;;;;;;;22.76;51.79;100066.94;4599686;27;20653;-63
2023/10/03 02:30:08;;;;;;;5.68;3.50;;;;;;;22.74;51.94;100055.03;4616603;27;20043;-63
2023/10/03 02:32:19;;;;;;;6.20;3.70;;;;;;;22.74;51.52;100049.25;4619390;27;20035;-62
2023/10/03 02:34:33;;;;;;;5.97;3.40;;;;;;;22.70;51.92;100031.13;4615472;27;20675;-63
2023/10/03 02:36:44;;;;;;;5.75;3.47;;;;;;;22.70;51.99;100029.09;4605526;27;20044;-63
2023/10/03 02:38:56;;;;;;;6.40;3.72;;;;;;;22.73;51.63;100021.69;4616856;27;20594;-62
2023/10/03 02:41:07;;;;;;;5.22;3.28;;;;;;;22.73;51.48;100024.56;4622888;27;20027;-63
2023/10/03 02:43:21;;;;;;;5.38;3.35;;;;;;;22.74;51.74;100021.28;4605629;27;20028;-63
2023/10/03 02:45:32;;;;;;;5.75;3.47;;;;;;;22.72;51.58;100023.75;4618673;27;20053;-63
2023/10/03 02:47:44;;;;;;;5.32;3.05;;;;;;;22.73;51.57;100021.69;4615535;27;20745;-63
2023/10/03 02:49:55;;;;;;;5.75;3.53;;;;;;;22.70;51.36;100011.81;4615594;27;20038;-63
2023/10/03 02:52:05;;;;;;;6.60;3.65;;;;;;;22.73;50.99;100013.91;4616785;27;20030;-63
2023/10/03 02:54:16;;;;;;;5.40;3.17;;;;;;;22.70;51.60;100003.19;4618612;27;20127;-63
2023/10/03 02:56:27;;;;;;;5.97;3.50;;;;;;;22.71;51.54;100004.00;4616969;27;20549;-63
2023/10/03 02:58:38;;;;;;;6.00;3.53;;;;;;;22.72;51.67;99997.84;4617112;27;20031;-63
2023/10/03 03:00:53;;;;;;;4.95;3.38;;;;;;;22.67;51.52;99980.13;4600638;27;20035;-63
2023/10/03 03:03:09;;;;;;;5.35;3.28;;;;;;;22.72;51.59;99994.16;4605495;27;20070;-63
2023/10/03 03:05:22;;;;;;;6.13;3.83;;;;;;;22.72;51.49;99982.66;4621744;27;20126;-63
2023/10/03 03:07:34;;;;;;;6.22;3.83;;;;;;;22.67;51.53;99974.38;4632162;27;20571;-63
2023/10/03 03:09:45;;;;;;;5.60;3.40;;;;;;;22.72;51.85;99976.91;4605454;27;20027;-63
2023/10/03 03:11:55;;;;;;;6.13;3.60;;;;;;;22.72;51.15;99977.69;4617436;27;20031;-63
2023/10/03 03:14:06;;;;;;;6.78;3.92;;;;;;;22.72;51.10;99971.94;4600647;27;20027;-63
2023/10/03 03:16:17;;;;;;;5.43;3.60;;;;;;;22.72;51.12;99953.88;4614858;27;20063;-63
2023/10/03 03:18:36;;;;;;;5.97;3.40;;;;;;;22.68;51.56;99938.63;4618817;27;20074;-63
2023/10/03 03:20:53;;;;;;;6.40;3.22;;;;;;;22.71;51.97;99955.94;4616396;27;20035;-63
2023/10/03 03:23:06;;;;;;;5.35;3.45;;;;;;;22.71;51.85;99940.69;4616942;27;20786;-63
2023/10/03 03:25:36;;;;;;;5.82;3.50;;;;;;;22.70;51.44;99925.50;4615572;27;20035;-63
2023/10/03 03:27:47;;;;;;;6.10;3.80;;;;;;;22.69;51.86;99934.53;4614579;27;20035;-63
2023/10/03 03:30:33;;;;;;;5.05;3.28;;;;;;;22.67;52.10;99928.34;4617512;27;20436;-63
2023/10/03 03:32:36;;;;;;;5.53;3.53;;;;;;;22.70;52.07;99928.38;4616164;27;20043;-63
2023/10/03 03:34:47;;;;;;;5.90;3.53;;;;;;;22.70;52.04;99922.63;4614929;27;20062;-63
2023/10/03 03:37:15;;;;;;;4.50;3.00;;;;;;;22.68;52.07;99919.31;4618586;27;20046;-63
2023/10/03 03:39:27;;;;;;;5.82;3.60;;;;;;;22.68;52.24;99915.59;4616258;27;20139;-63
2023/10/03 03:41:39;;;;;;;5.90;3.65;;;;;;;22.68;52.15;99912.72;4613711;27;20043;-63
2023/10/03 03:43:50;;;;;;;6.13;3.75;;;;;;;22.71;52.18;99915.66;4615579;27;20108;-63
2023/10/03 03:46:01;;;;;;;6.60;3.65;;;;;;;22.69;52.10;99902.91;4620947;27;20031;-63
2023/10/03 03:48:13;;;;;;;5.20;3.30;;;;;;;22.66;52.50;99889.31;4618246;27;20038;-63
2023/10/03 03:50:24;;;;;;;5.68;3.35;;;;;;;22.71;52.36;99894.66;4618284;27;20020;-63
2023/10/03 03:52:34;;;;;;;6.40;3.45;;;;;;;22.69;52.15;99882.75;4613156;27;20039;-63
2023/10/03 03:54:45;;;;;;;5.38;3.33;;;;;;;22.67;52.50;99876.56;4616924;27;20031;-63
2023/10/03 03:56:55;;;;;;;5.82;3.70;;;;;;;22.69;52.56;99880.69;4599513;27;20039;-64
2023/10/03 03:59:06;;;;;;;6.03;3.50;;;;;;;22.65;52.36;99879.84;4617748;27;20022;-64
2023/10/03 04:01:19;;;;;;;5.60;3.45;;;;;;;22.70;52.34;99878.66;4618504;27;20534;-64
2023/10/03 04:03:34;;;;;;;6.65;3.50;;;;;;;22.71;52.45;99880.28;4614600;27;20557;-64
2023/10/03 04:05:49;;;;;;;7.38;3.75;;;;;;;22.70;52.46;99870.84;4633842;27;20031;-64
2023/10/03 04:07:59;;;;;;;5.53;3.30;;;;;;;22.69;51.87;99860.56;4604644;27;20023;-64
2023/10/03 04:10:10;;;;;;;6.15;3.78;;;;;;;22.67;52.13;99865.91;4615451;27;20035;-64
2023/10/03 04:12:20;;;;;;;5.93;3.28;;;;;;;22.65;51.95;99868.34;4615484;27;20031;-64
2023/10/03 04:14:31;;;;;;;6.00;3.65;;;;;;;22.65;52.02;99879.84;4617427;27;20046;-64
2023/10/03 04:16:43;;;;;;;5.82;3.42;;;;;;;22.70;51.54;99875.78;4615134;27;20077;-64
2023/10/03 04:18:54;;;;;;;6.45;3.40;;;;;;;22.69;51.54;99872.06;4605416;27;20854;-64
2023/10/03 04:21:05;;;;;;;5.07;3.03;;;;;;;22.67;51.56;99862.19;4603683;27;20015;-64
2023/10/03 04:23:15;;;;;;;5.55;3.20;;;;;;;22.64;51.66;99851.47;4615513;27;20035;-64
2023/10/03 04:25:26;;;;;;;5.65;3.10;;;;;;;22.71;51.30;99854.41;4614818;27;20035;-64
2023/10/03 04:27:37;;;;;;;4.82;2.90;;;;;;;22.67;51.23;99844.94;4615967;27;20062;-64
2023/10/03 04:29:48;;;;;;;5.45;3.08;;;;;;;22.72;51.13;99856.06;4614685;27;20133;-64
2023/10/03 04:31:58;;;;;;;6.15;3.30;;;;;;;22.70;51.55;99858.50;4616310;27;20023;-64
2023/10/03 04:34:11;;;;;;;5.95;3.28;;;;;;;22.69;51.05;99857.66;4615931;27;20035;-64
2023/10/03 04:36:24;;;;;;;5.57;3.30;;;;;;;22.67;51.07;99859.31;4615478;27;20609;-64
2023/10/03 04:38:42;;;;;;;5.50;3.20;;;;;;;22.70;50.89;99849.88;4616660;27;20031;-64
2023/10/03 04:40:52;;;;;;;6.38;3.30;;;;;;;22.69;50.91;99854.81;4615341;27;20032;-64
2023/10/03 04:43:27;;;;;;;5.13;3.00;;;;;;;22.68;51.15;99861.78;4615402;27;20056;-64
2023/10/03 04:45:35;;;;;;;5.07;2.78;;;;;;;22.66;50.98;99858.47;4614971;27;20103;-64
2023/10/03 04:47:47;;;;;;;5.38;3.10;;;;;;;22.70;51.12;99870.84;4615361;27;20032;-64
2023/10/03 04:50:00;;;;;;;4.40;2.92;;;;;;;22.69;51.04;99868.38;4617285;27;20035;-64
2023/10/03 04:52:11;;;;;;;5.30;3.00;;;;;;;22.70;51.23;99873.72;4614597;27;20807;-64
2023/10/03 04:54:21;;;;;;;4.75;2.95;;;;;;;22.69;51.11;99868.38;4614814;27;20129;-64
2023/10/03 04:56:32;;;;;;;5.05;3.03;;;;;;;22.72;51.60;99870.44;4616509;27;20034;-64
2023/10/03 04:58:42;;;;;;;4.90;2.90;;;;;;;22.70;51.18;99867.13;4615988;27;20039;-64
2023/10/03 05:00:53;;;;;;;5.07;2.72;;;;;;;22.70;51.10;99875.78;4616376;27;20019;-64
2023/10/03 05:03:09;;;;;;;5.15;3.30;;;;;;;22.70;51.12;99882.38;4617003;27;20110;-64
2023/10/03 05:05:24;;;;;;;4.25;2.58;;;;;;;22.69;51.13;99889.31;4614607;27;20026;-64
2023/10/03 05:07:35;;;;;;;4.45;2.70;;;;;;;22.73;51.39;99892.22;4613972;27;20043;-64
2023/10/03 05:09:46;;;;;;;5.85;3.10;;;;;;;22.73;51.19;99887.31;4598310;27;20047;-64
2023/10/03 05:11:58;;;;;;;4.70;2.80;;;;;;;22.74;51.20;99888.16;4613751;27;21001;-64
2023/10/03 05:14:12;;;;;;;4.82;2.95;;;;;;;22.71;50.86;99892.63;4615617;27;20122;-64
2023/10/03 05:16:22;;;;;;;5.50;3.25;;;;;;;22.72;51.06;99884.84;4633287;27;20035;-64
2023/10/03 05:18:34;;;;;;;4.88;2.90;;;;;;;22.72;51.37;99884.84;4615611;27;20043;-64
2023/10/03 05:20:44;;;;;;;5.03;3.00;;;;;;;22.71;51.17;99886.03;4616928;27;20035;-64
2023/10/03 05:22:55;;;;;;;5.10;3.00;;;;;;;22.70;51.22;99881.53;4614565;27;20031;-64
2023/10/03 05:25:07;;;;;;;5.10;3.10;;;;;;;22.69;51.13;99885.63;4614533;27;20042;-64
2023/10/03 05:27:18;;;;;;;4.10;2.65;;;;;;;22.69;51.16;99892.19;4616344;27;20164;-64
2023/10/03 05:29:28;;;;;;;4.93;2.90;;;;;;;22.73;51.17;99903.75;4616697;27;20517;-65
2023/10/03 05:31:41;;;;;;;4.60;2.88;;;;;;;22.71;51.19;99894.66;4618536;27;20426;-64
2023/10/03 05:33:51;;;;;;;4.82;2.80;;;;;;;22.69;51.53;99889.31;4618850;27;20078;-64
2023/10/03 05:36:02;;;;;;;5.10;2.70;;;;;;;22.71;51.36;99897.56;4600560;27;20059;-64
2023/10/03 05:38:19;;;;;;;5.30;2.78;;;;;;;22.74;51.48;99896.78;4618515;27;20571;-64
2023/10/03 05:40:30;;;;;;;4.60;2.80;;;;;;;22.73;51.38;99895.94;4619432;27;20038;-64
2023/10/03 05:42:43;;;;;;;5.28;2.78;;;;;;;22.73;51.51;99895.09;4618918;27;20096;-64
2023/10/03 05:44:53;;;;;;;4.30;2.50;;;;;;;22.70;51.52;99891.00;4617367;27;20026;-64
2023/10/03 05:47:05;;;;;;;5.18;2.97;;;;;;;22.72;51.60;99891.41;4617276;27;20047;-64
2023/10/03 05:49:15;;;;;;;5.72;2.90;;;;;;;22.72;51.61;99902.09;4606577;27;20083;-64
2023/10/03 05:51:26;;;;;;;5.28;2.97;;;;;;;22.71;51.59;99892.63;4617397;27;20118;-64
2023/10/03 05:53:36;;;;;;;4.50;2.72;;;;;;;22.71;51.77;99906.19;4619560;27;20049;-64
2023/10/03 05:55:47;;;;;;;5.00;2.95;;;;;;;22.73;51.71;99926.75;4617151;27;20999;-64
2023/10/03 05:57:57;;;;;;;6.30;3.10;;;;;;;22.74;51.96;99939.94;4598278;27;20046;-64
2023/10/03 06:00:09;;;;;;;4.80;2.83;;;;;;;22.72;51.68;99930.88;4591200;27;20024;-64
2023/10/03 06:02:20;;;;;;;4.72;3.00;;;;;;;22.70;51.92;99927.56;4614628;27;20043;-64
2023/10/03 06:04:36;;;;;;;3.97;2.70;;;;;;;22.67;51.94;99926.31;4615738;27;20093;-64
2023/10/03 06:06:46;;;;;;;4.80;2.65;;;;;;;22.70;51.81;99933.31;4618668;27;20108;-64
2023/10/03 06:08:57;;;;;;;4.82;2.90;;;;;;;22.67;51.94;99939.84;4605643;27;20119;-64
2023/10/03 06:11:07;;;;;;;6.05;3.20;;;;;;;22.73;51.83;99955.53;4617747;27;20612;-64
2023/10/03 06:13:17;;;;;;;4.35;2.80;;;;;;;22.72;52.00;99948.13;4618920;27;20107;-64
2023/10/03 06:15:28;;;;;;;5.30;2.92;;;;;;;22.65;52.30;99942.31;4618691;27;20038;-64
2023/10/03 06:17:40;;;;;;;4.47;2.75;;;;;;;22.72;52.28;99948.13;4617774;27;20049;-64
2023/10/03 06:19:52;;;;;;;5.90;3.00;;;;;;;22.70;52.02;99956.31;4616689;27;20031;-64
2023/10/03 06:22:05;;;;;;;5.15;2.70;;;;;;;22.72;52.13;99953.88;4617898;27;20542;-64
2023/10/03 06:24:16;;;;;;;5.68;2.97;;;;;;;22.72;52.21;99959.63;4618740;27;20022;-64
2023/10/03 06:26:26;;;;;;;4.85;2.80;;;;;;;22.72;52.13;99971.16;4618083;27;20806;-64
2023/10/03 06:28:37;;;;;;;5.03;2.95;;;;;;;22.71;52.50;99960.84;4604973;27;20184;-64
2023/10/03 06:30:47;;;;;;;4.38;2.65;;;;;;;22.67;52.60;99969.47;4621300;27;20035;-64
2023/10/03 06:32:58;;;;;;;4.75;2.95;;;;;;;22.72;52.51;99976.91;4617985;27;20910;-64
2023/10/03 06:35:09;;;;;;;4.53;2.53;;;;;;;22.70;52.70;99979.34;4617316;27;20035;-64
2023/10/03 06:37:19;;;;;;;5.05;2.80;;;;;;;22.70;53.05;99965.78;4616451;27;20099;-64
2023/10/03 06:39:30;;;;;;;5.43;2.72;;;;;;;22.72;52.78;99976.91;4617484;27;20023;-64
2023/10/03 06:41:40;;;;;;;4.78;2.80;;;;;;;22.71;53.09;99969.47;4615541;27;20035;-64
2023/10/03 06:43:51;;;;;;;4.53;2.72;;;;;;;22.65;53.40;99971.91;4597856;27;20408;-64
2023/10/03 06:46:05;;;;;;;4.28;2.70;;;;;;;22.68;52.99;99976.03;4617322;27;20057;-64
2023/10/03 06:48:15;;;;;;;4.25;2.60;;;;;;;22.62;53.12;99960.34;4617246;27;20035;-64
2023/10/03 06:50:26;;;;;;;5.00;2.83;;;;;;;22.70;52.93;99967.84;4613327;27;20482;-64
2023/10/03 06:52:36;;;;;;;5.43;3.00;;;;;;;22.71;53.47;99983.84;4617337;27;20035;-64
2023/10/03 06:54:47;;;;;;;5.57;2.85;;;;;;;22.69;53.52;99971.94;4616925;27;20027;-64
2023/10/03 06:56:58;;;;;;;4.88;2.85;;;;;;;22.70;53.57;99985.09;4614872;27;20075;-64
2023/10/03 06:59:10;;;;;;;5.43;3.03;;;;;;;22.71;53.74;99980.97;4617087;27;20031;-64
2023/10/03 07:01:20;;;;;;;4.47;2.97;;;;;;;22.68;53.87;99964.50;4614975;27;20114;-64
2023/10/03 07:03:30;;;;;;;4.65;2.88;;;;;;;22.71;53.75;99975.22;4617710;27;20116;-65
2023/10/03 07:05:41;;;;;;;4.22;2.78;;;;;;;22.69;53.55;99978.50;4617369;27;20602;-64
2023/10/03 07:07:51;;;;;;;4.15;2.65;;;;;;;22.67;53.83;99983.00;4616199;27;20031;-64
2023/10/03 07:10:04;;;;;;;4.18;2.53;;;;;;;22.71;54.04;99993.31;4605229;27;20035;-64
2023/10/03 07:12:14;;;;;;;4.90;3.00;;;;;;;22.69;54.06;100000.72;4616459;27;20035;-64
2023/10/03 07:14:24;;;;;;;4.65;2.70;;;;;;;22.69;53.99;99983.44;4615996;27;20038;-64
2023/10/03 07:16:39;;;;;;;4.63;2.67;;;;;;;22.70;54.15;99985.09;4615058;27;20049;-64
2023/10/03 07:18:50;;;;;;;5.32;3.33;;;;;;;22.67;54.02;100008.91;4616776;27;21447;-62
2023/10/03 07:21:00;;;;;;;4.65;2.90;;;;;;;22.68;54.13;100007.66;4617188;27;20035;-61
2023/10/03 07:23:10;;;;;;;4.55;3.03;;;;;;;22.70;54.17;100002.34;4615691;27;20026;-61
2023/10/03 07:25:21;;;;;;;4.70;2.60;;;;;;;22.71;54.45;100004.00;4614127;27;20089;-62
2023/10/03 07:27:34;;;;;;;5.65;2.88;;;;;;;22.68;54.51;99993.28;4617320;27;20082;-62
2023/10/03 07:29:44;;;;;;;5.43;3.10;;;;;;;22.70;54.65;99996.59;4617742;27;20077;-61
2023/10/03 07:31:55;;;;;;;5.53;3.22;;;;;;;22.68;54.40;99990.41;4598883;27;20390;-61
2023/10/03 07:34:07;;;;;;;3.88;2.72;;;;;;;22.66;54.98;99978.50;4616083;27;20031;-61
2023/10/03 07:36:17;;;;;;;4.43;2.80;;;;;;;22.67;54.69;99991.63;4615282;27;20039;-62
2023/10/03 07:38:28;;;;;;;4.78;3.25;;;;;;;22.69;55.09;99994.97;4615438;27;20285;-62
2023/10/03 07:40:39;;;;;;;4.43;2.90;;;;;;;22.66;55.23;99993.69;4616396;27;20046;-62
2023/10/03 07:42:49;;;;;;;4.57;2.58;;;;;;;22.67;55.19;100020.41;4614953;27;20059;-62
2023/10/03 07:45:00;;;;;;;4.18;2.75;;;;;;;22.66;55.33;100028.19;4599054;27;20456;-62
2023/10/03 07:47:12;;;;;;;4.55;2.88;;;;;;;22.69;55.55;100012.22;4616259;27;20027;-61
2023/10/03 07:49:22;;;;;;;5.40;3.10;;;;;;;22.70;55.52;100036.88;4615075;27;20536;-62
2023/10/03 07:51:34;;;;;;;4.40;2.65;;;;;;;22.69;55.91;100044.66;4616362;27;20027;-62
2023/10/03 07:53:45;;;;;;;5.18;3.05;;;;;;;22.65;55.96;100051.63;4614669;27;20040;-62
2023/10/03 07:55:57;;;;;;;3.45;2.55;;;;;;;22.68;55.99;100060.28;4614348;27;20870;-64
2023/10/03 07:58:07;;;;;;;4.40;2.75;;;;;;;22.64;55.95;100058.59;4616962;27;20138;-64
2023/10/03 08:00:20;;;;;;;5.22;2.92;;;;;;;22.68;55.99;100062.31;4616837;27;20043;-64
2023/10/03 08:02:32;;;;;;;4.65;2.83;;;;;;;22.66;56.32;100059.03;4616886;27;20110;-64
2023/10/03 08:04:46;;;;;;;4.50;2.40;;;;;;;22.66;56.33;100047.53;4615617;27;20031;-64
2023/10/03 08:06:56;;;;;;;5.13;2.78;;;;;;;22.69;56.72;100046.75;4630530;27;20023;-64
2023/10/03 08:09:08;;;;;;;4.57;2.58;;;;;;;22.68;56.58;100047.94;4614637;27;20040;-64
2023/10/03 08:11:28;;;;;;;4.50;2.45;;;;;;;22.68;56.71;100054.53;4615098;27;20043;-64
2023/10/03 08:13:41;;;;;;;4.28;2.55;;;;;;;22.70;56.95;100082.91;4615883;27;20015;-65
2023/10/03 08:15:51;;;;;;;4.20;2.60;;;;;;;22.69;56.58;100089.91;4614958;27;20062;-64
2023/10/03 08:18:03;;;;;;;3.80;2.50;;;;;;;22.67;56.64;100069.31;4612731;27;20125;-64
2023/10/03 08:20:15;;;;;;;3.58;2.38;;;;;;;22.70;56.39;100074.28;4616383;27;20108;-64
2023/10/03 08:22:26;;;;;;;4.07;2.42;;;;;;;22.67;56.55;100057.81;4614819;27;20130;-64
2023/10/03 08:24:36;;;;;;;3.67;2.13;;;;;;;22.63;56.49;100057.75;4615910;27;20928;-64
2023/10/03 08:26:47;;;;;;;4.05;2.40;;;;;;;22.68;56.41;100066.03;4616808;27;20533;-64
2023/10/03 08:29:04;;;;;;;3.58;2.20;;;;;;;22.68;56.19;100065.19;4616278;27;20070;-64
2023/10/03 08:31:14;;;;;;;3.15;2.20;;;;;;;22.68;56.86;100063.16;4614213;27;20029;-64
2023/10/03 08:33:24;;;;;;;4.63;2.58;;;;;;;22.68;56.73;100068.09;4603857;27;20050;-65
2023/10/03 08:35:35;;;;;;;4.68;2.60;;;;;;;22.70;56.60;100091.53;4615568;27;20054;-64
2023/10/03 08:37:45;;;;;;;4.28;2.60;;;;;;;22.69;56.89;100105.09;4614309;27;20158;-64
2023/10/03 08:39:56;;;;;;;5.28;2.53;;;;;;;22.67;56.77;100095.19;4614391;27;20074;-64
2023/10/03 08:42:20;;;;;;;4.13;2.35;;;;;;;22.68;56.69;100096.84;4614708;27;20071;-64
2023/10/03 08:44:36;;;;;;;3.78;2.30;;;;;;;22.67;57.13;100109.59;4615796;27;20054;-64
2023/10/03 08:46:55;;;;;;;3.70;2.30;;;;;;;22.65;57.08;100091.88;4614103;27;20507;-64
2023/10/03 08:49:08;;;;;;;3.00;2.20;;;;;;;22.66;57.13;100093.56;4613856;27;20027;-64
2023/10/03 08:51:19;;;;;;;3.75;2.10;;;;;;;22.68;56.86;100103.44;4630268;27;20031;-64
2023/10/03 08:53:31;;;;;;;2.92;2.00;;;;;;;22.68;56.95;100109.19;4616061;27;20031;-64
2023/10/03 08:55:46;;;;;;;2.72;2.00;;;;;;;22.67;57.14;100118.22;4614204;27;20032;-64
2023/10/03 08:58:00;;;;;;;3.17;2.05;;;;;;;22.67;57.36;100129.72;4613083;27;20046;-64
2023/10/03 09:00:11;;;;;;;3.17;2.03;;;;;;;22.65;57.01;100129.28;4614971;27;20023;-64
2023/10/03 09:02:24;;;;;;;2.75;1.90;;;;;;;22.64;57.30;100127.63;4604994;27;20127;-64
2023/10/03 09:04:38;;;;;;;3.40;2.30;;;;;;;22.64;57.55;100124.75;4617650;27;20654;-64
2023/10/03 09:06:50;;;;;;;2.88;2.05;;;;;;;22.67;57.51;100124.81;4618284;27;20122;-64
2023/10/03 09:09:10;;;;;;;3.30;2.05;;;;;;;22.69;57.45;100127.28;4616807;27;20131;-64
2023/10/03 09:11:21;;;;;;;3.17;1.92;;;;;;;22.67;57.68;100129.72;4624210;27;20037;-64
2023/10/03 09:13:31;;;;;;;2.67;1.88;;;;;;;22.67;57.63;100135.47;4618222;27;20102;-64
2023/10/03 09:15:45;;;;;;;2.67;1.90;;;;;;;22.66;57.30;100133.84;4617369;27;20039;-64
2023/10/03 09:17:56;;;;;;;2.83;1.73;;;;;;;22.68;57.10;100140.00;4617151;27;20039;-64
2023/10/03 09:20:08;;;;;;;3.72;1.80;;;;;;;22.66;57.11;100156.84;4619669;27;20019;-64
2023/10/03 09:22:31;;;;;;;2.60;1.60;;;;;;;22.68;56.94;100160.13;4618103;27;20066;-64
2023/10/03 09:24:46;;;;;;;2.25;1.50;;;;;;;22.64;56.51;100148.63;4606893;27;20028;-64
2023/10/03 09:27:07;;;;;;;2.72;1.60;;;;;;;22.67;56.73;100164.25;4618700;27;20020;-64
2023/10/03 09:29:29;;;;;;;2.30;1.40;;;;;;;22.69;56.67;100167.56;4618213;27;20041;-64
2023/10/03 09:31:41;;;;;;;2.13;1.60;;;;;;;22.66;56.63;100145.34;4617954;27;20070;-64
2023/10/03 09:33:52;;;;;;;2.08;1.50;;;;;;;22.69;56.22;100154.00;4619811;27;20027;-64
2023/10/03 09:36:02;;;;;;;1.85;1.50;;;;;;;22.66;56.37;100145.34;4618267;27;20555;-64
2023/10/03 09:38:19;;;;;;;2.13;1.50;;;;;;;22.69;56.33;100156.06;4616869;27;20039;-64
2023/10/03 09:40:47;;;;;;;;;;;;;;;22.70;55.82;100163.47;4617580;27;20129;-64
2023/10/03 09:42:57;;;;;;;2.55;1.60;;;;;;;22.65;55.92;100161.75;4618819;27;19937;-64
2023/10/03 09:45:09;;;;;;;2.72;1.45;;;;;;;22.66;56.15;100160.53;4616589;27;20051;-64
2023/10/03 09:47:27;;;;;;;2.35;1.38;;;;;;;22.66;56.07;100156.84;4617468;27;20027;-64
2023/10/03 09:49:39;;;;;;;2.65;1.60;;;;;;;22.67;56.21;100149.88;4618575;27;20039;-64
2023/10/03 09:51:53;;;;;;;2.05;1.40;;;;;;;22.69;56.32;100138.81;4617782;27;20028;-64
2023/10/03 09:54:07;;;;;;;2.40;1.70;;;;;;;22.67;56.73;100129.72;4617046;27;20085;-64
2023/10/03 09:56:19;;;;;;;2.05;1.30;;;;;;;22.67;56.71;100123.97;4617246;27;20027;-64
2023/10/03 09:58:32;;;;;;;1.73;1.30;;;;;;;22.66;56.53;100133.84;4618883;27;20059;-64
2023/10/03 10:00:51;;;;;;;2.25;1.33;;;;;;;22.69;56.33;100151.13;4617628;27;20031;-64
2023/10/03 10:03:05;;;;;;;1.90;1.40;;;;;;;22.64;56.14;100153.53;4618634;27;20031;-64
2023/10/03 10:05:21;;;;;;;1.92;1.40;;;;;;;22.69;56.20;100162.63;4618904;27;20035;-64
2023/10/03 10:07:43;;;;;;;3.17;1.33;;;;;;;22.64;56.01;100157.25;4617535;27;20027;-64
2023/10/03 10:10:12;;;;;;;2.10;1.40;;;;;;;22.67;55.94;100161.38;4617367;27;20792;-62
2023/10/03 10:12:22;;;;;;;1.75;1.33;;;;;;;22.66;55.95;100162.59;4618939;27;20127;-62
2023/10/03 10:15:13;;;;;;;1.30;1.00;;;;;;;22.68;56.04;100171.66;4617584;27;20034;-62
2023/10/03 10:17:26;;;;;;;1.48;1.30;;;;;;;22.69;56.15;100179.09;4599553;27;20881;-61
2023/10/03 10:20:12;;;;;;;2.40;1.38;;;;;;;22.69;56.02;100190.59;4617383;27;20031;-61